Time;durP1;ratioP1;P1;durP2;ratioP2;P2;SDS_P1;SDS_P2;PMS_P1;PMS_P2;Temp;Humidity;BMP_temperature;BMP_pressure;BME280_temperature;BME280_humidity;BME280_pressure;Samples;Min_cycle;Max_cycle;Signal;HPM_P1;HPM_P2
2022/08/24 00:00:55;;;;;;;4.60;3.60;;;21.10;86.20;;;;;;5038177;28;20495;-81
2022/08/24 00:03:21;;;;;;;6.90;3.13;;;20.90;87.90;;;;;;5037289;28;20432;-81
2022/08/24 00:05:47;;;;;;;6.43;3.20;;;20.80;88.80;;;;;;5037016;28;20265;-81
2022/08/24 00:08:13;;;;;;;3.90;3.00;;;20.80;89.30;;;;;;5036300;28;20208;-81
2022/08/24 00:10:39;;;;;;;3.03;2.73;;;21.00;89.70;;;;;;5037185;28;20936;-81
2022/08/24 00:13:05;;;;;;;6.67;3.33;;;21.20;89.20;;;;;;5037466;28;20436;-81
2022/08/24 00:15:31;;;;;;;6.83;4.33;;;21.30;88.50;;;;;;5036394;28;20950;-81
2022/08/24 00:17:57;;;;;;;4.57;4.07;;;21.30;88.40;;;;;;5036698;28;20192;-82
2022/08/24 00:20:22;;;;;;;5.43;3.83;;;21.30;88.60;;;;;;5036129;28;20758;-81
2022/08/24 00:22:48;;;;;;;4.07;3.67;;;21.10;89.60;;;;;;5036938;28;20173;-81
2022/08/24 00:25:13;;;;;;;10.10;4.40;;;20.90;90.90;;;;;;5036415;28;20575;-81
2022/08/24 00:27:40;;;;;;;5.33;4.30;;;20.60;91.70;;;;;;5036185;28;20228;-82
2022/08/24 00:30:09;;;;;;;6.03;3.67;;;20.50;92.40;;;;;;5037033;28;20220;-81
2022/08/24 00:32:36;;;;;;;7.33;4.47;;;20.30;93.10;;;;;;5036462;28;20477;-81
2022/08/24 00:35:06;;;;;;;13.00;4.33;;;20.10;94.70;;;;;;5036126;28;20979;-81
2022/08/24 00:37:32;;;;;;;6.60;3.60;;;19.80;96.50;;;;;;5036044;28;20456;-82
2022/08/24 00:39:58;;;;;;;7.37;3.93;;;19.60;98.00;;;;;;5036959;28;20408;-81
2022/08/24 00:42:24;;;;;;;4.33;3.50;;;19.30;99.90;;;;;;5036613;28;20836;-81
2022/08/24 00:44:50;;;;;;;4.47;3.50;;;19.20;99.90;;;;;;5035963;28;20186;-81
2022/08/24 00:47:20;;;;;;;7.23;4.50;;;19.10;99.90;;;;;;5036676;28;20428;-81
2022/08/24 00:49:58;;;;;;;6.50;5.80;;;19.00;99.90;;;;;;5037426;28;20428;-83
2022/08/24 00:52:31;;;;;;;8.87;4.57;;;18.70;99.90;;;;;;5036614;28;20389;-81
2022/08/24 00:55:06;;;;;;;6.63;5.50;;;18.40;99.90;;;;;;5034208;28;20487;-83
2022/08/24 00:57:37;;;;;;;7.80;4.90;;;18.20;99.90;;;;;;5035602;28;20457;-81
2022/08/24 01:00:25;;;;;;;11.27;4.80;;;18.20;99.90;;;;;;5036005;28;20500;-82
2022/08/24 01:02:55;;;;;;;4.60;4.00;;;18.10;99.90;;;;;;5036143;28;20397;-84
2022/08/24 01:05:21;;;;;;;6.00;4.33;;;18.00;99.90;;;;;;5036315;28;20397;-82
2022/08/24 01:07:48;;;;;;;6.93;4.20;;;17.90;99.90;;;;;;5035618;28;21226;-83
2022/08/24 01:10:18;;;;;;;9.00;4.70;;;17.80;99.90;;;;;;5036061;28;20180;-83
2022/08/24 01:12:47;;;;;;;6.53;3.80;;;17.80;99.90;;;;;;5036432;28;20485;-83
2022/08/24 01:15:13;;;;;;;6.50;4.60;;;17.80;99.90;;;;;;5036449;28;20460;-82
2022/08/24 01:20:25;;;;;;;4.90;3.93;;;17.90;99.90;;;;;;5036191;28;20391;-82
2022/08/24 01:23:05;;;;;;;4.30;3.90;;;17.90;99.90;;;;;;5036083;28;20495;-82
2022/08/24 01:25:33;;;;;;;4.63;3.87;;;17.80;99.90;;;;;;5036352;28;20466;-82
2022/08/24 01:28:05;;;;;;;7.70;3.53;;;17.70;99.90;;;;;;5035713;28;20428;-83
2022/08/24 01:30:31;;;;;;;6.03;3.83;;;17.70;99.90;;;;;;5036499;28;20389;-83
2022/08/24 01:32:59;;;;;;;5.47;3.70;;;17.70;99.90;;;;;;5035179;28;20417;-82
2022/08/24 01:35:26;;;;;;;7.90;3.47;;;17.70;99.90;;;;;;5038000;28;20992;-83
2022/08/24 01:37:53;;;;;;;6.97;5.30;;;17.70;99.90;;;;;;5039794;28;20430;-82
2022/08/24 01:40:19;;;;;;;6.37;4.60;;;17.70;99.90;;;;;;5038264;28;20420;-82
2022/08/24 01:42:50;;;;;;;7.90;4.80;;;17.70;99.90;;;;;;5038149;28;20412;-82
2022/08/24 01:45:17;;;;;;;4.67;3.90;;;17.70;99.90;;;;;;5039720;28;20412;-82
2022/08/24 01:47:42;;;;;;;5.47;4.53;;;17.70;99.90;;;;;;5025583;28;20467;-82
2022/08/24 01:50:08;;;;;;;6.77;4.13;;;17.60;99.90;;;;;;5033031;28;20476;-82
2022/08/24 01:52:34;;;;;;;5.07;4.57;;;17.60;99.90;;;;;;5033232;28;20178;-82
2022/08/24 01:55:00;;;;;;;7.43;4.27;;;17.50;99.90;;;;;;5038441;28;20698;-82
2022/08/24 01:57:26;;;;;;;5.37;4.30;;;17.50;99.90;;;;;;5038489;28;20482;-83
2022/08/24 01:59:52;;;;;;;5.37;4.57;;;17.40;99.90;;;;;;5038885;28;20807;-82
2022/08/24 02:02:28;;;;;;;5.60;4.13;;;17.20;99.90;;;;;;5038526;28;20173;-83
2022/08/24 02:04:54;;;;;;;4.90;4.40;;;17.10;99.90;;;;;;5038059;28;20840;-82
2022/08/24 02:07:20;;;;;;;11.33;4.00;;;17.00;99.90;;;;;;5037856;28;20460;-81
2022/08/24 02:09:46;;;;;;;5.60;3.97;;;17.00;99.90;;;;;;5038226;28;20417;-82
2022/08/24 02:12:12;;;;;;;7.07;4.47;;;17.00;99.90;;;;;;5038212;28;20217;-82
2022/08/24 02:14:37;;;;;;;4.23;3.83;;;17.00;99.90;;;;;;5038806;28;20463;-83
2022/08/24 02:17:05;;;;;;;5.33;4.83;;;16.90;99.90;;;;;;5037975;28;20513;-83
2022/08/24 02:19:31;;;;;;;6.70;4.00;;;16.80;99.90;;;;;;5038357;28;20189;-83
2022/08/24 02:21:56;;;;;;;4.33;3.83;;;16.80;99.90;;;;;;5038252;28;20396;-83
2022/08/24 02:24:22;;;;;;;5.93;3.93;;;16.80;99.90;;;;;;5038517;28;20181;-82
2022/08/24 02:26:48;;;;;;;5.67;3.70;;;16.70;99.90;;;;;;5037846;28;20682;-82
2022/08/24 02:29:13;;;;;;;5.13;4.23;;;16.70;99.90;;;;;;5038098;28;20231;-82
2022/08/24 02:31:39;;;;;;;4.87;3.90;;;16.70;99.90;;;;;;5037887;28;20182;-82
2022/08/24 02:34:04;;;;;;;5.93;4.07;;;16.60;99.90;;;;;;5037968;28;20204;-82
2022/08/24 02:36:30;;;;;;;5.67;4.10;;;16.60;99.90;;;;;;5037508;28;20186;-83
2022/08/24 02:38:56;;;;;;;4.63;4.20;;;16.50;99.90;;;;;;5037691;28;20590;-82
2022/08/24 02:41:24;;;;;;;4.40;4.00;;;16.50;99.90;;;;;;5038007;28;20174;-82
2022/08/24 02:43:50;;;;;;;4.60;4.00;;;16.40;99.90;;;;;;5036757;28;20929;-82
2022/08/24 02:46:20;;;;;;;6.20;4.37;;;16.30;99.90;;;;;;5037566;28;20459;-82
2022/08/24 02:48:46;;;;;;;7.40;4.50;;;16.30;99.90;;;;;;5037365;28;20222;-82
2022/08/24 02:51:27;;;;;;;6.53;3.90;;;16.20;99.90;;;;;;5034166;28;20502;-82
2022/08/24 02:53:53;;;;;;;7.77;4.70;;;16.20;99.90;;;;;;5025684;28;20202;-83
2022/08/24 02:56:19;;;;;;;4.80;4.40;;;16.20;99.90;;;;;;5033724;28;20441;-82
2022/08/24 02:58:46;;;;;;;5.50;4.80;;;16.10;99.90;;;;;;5037321;28;20781;-83
2022/08/24 03:01:11;;;;;;;7.30;4.77;;;16.00;99.90;;;;;;5037233;28;20926;-81
2022/08/24 03:03:38;;;;;;;6.23;4.93;;;15.90;99.90;;;;;;5037717;28;20496;-82
2022/08/24 03:06:06;;;;;;;7.40;4.40;;;15.80;99.90;;;;;;5036296;28;20194;-82
2022/08/24 03:08:32;;;;;;;4.83;4.20;;;15.80;99.90;;;;;;5031476;28;20478;-82
2022/08/24 03:10:59;;;;;;;10.80;4.50;;;15.80;99.90;;;;;;5026400;28;20839;-83
2022/08/24 03:13:26;;;;;;;4.37;4.00;;;15.80;99.90;;;;;;5032648;28;20276;-82
2022/08/24 03:15:52;;;;;;;6.40;4.30;;;15.80;99.90;;;;;;5030340;28;21062;-82
2022/08/24 03:18:18;;;;;;;6.93;4.73;;;15.90;99.90;;;;;;5032015;28;20549;-83
2022/08/24 03:20:43;;;;;;;4.60;4.20;;;15.90;99.90;;;;;;5025912;28;20464;-81
2022/08/24 03:23:09;;;;;;;6.13;4.17;;;15.90;99.90;;;;;;5027687;28;20171;-81
2022/08/24 03:25:34;;;;;;;5.10;4.50;;;15.90;99.90;;;;;;5031509;28;20174;-81
2022/08/24 03:28:01;;;;;;;5.50;4.90;;;16.00;99.90;;;;;;5023592;28;20244;-82
2022/08/24 03:30:27;;;;;;;8.07;4.93;;;16.00;99.90;;;;;;5023665;28;20186;-82
2022/08/24 03:32:53;;;;;;;5.80;4.83;;;16.10;99.90;;;;;;5023259;28;20523;-82
2022/08/24 03:35:20;;;;;;;7.90;5.13;;;16.10;99.90;;;;;;5026458;28;20476;-82
2022/08/24 03:37:46;;;;;;;4.43;4.00;;;16.10;99.90;;;;;;5023493;28;20433;-82
2022/08/24 03:40:12;;;;;;;6.50;4.50;;;16.10;99.90;;;;;;5023463;28;20428;-82
2022/08/24 03:42:38;;;;;;;7.27;4.80;;;16.10;99.90;;;;;;5030893;28;20842;-82
2022/08/24 03:45:04;;;;;;;6.80;4.33;;;16.10;99.90;;;;;;5021104;28;20249;-82
2022/08/24 03:47:30;;;;;;;11.80;4.67;;;16.10;99.90;;;;;;5020545;28;20960;-82
2022/08/24 03:49:56;;;;;;;4.70;4.00;;;16.00;99.90;;;;;;5020184;28;20435;-82
2022/08/24 03:52:22;;;;;;;5.00;3.80;;;15.90;99.90;;;;;;5025371;28;20181;-82
2022/08/24 03:54:47;;;;;;;5.50;4.90;;;15.80;99.90;;;;;;5025441;28;20586;-82
2022/08/24 03:57:13;;;;;;;5.67;4.37;;;15.70;99.90;;;;;;5023278;28;20455;-82
2022/08/24 03:59:39;;;;;;;7.80;4.80;;;15.80;99.90;;;;;;5024393;28;20248;-83
2022/08/24 04:02:04;;;;;;;4.77;3.70;;;15.80;99.90;;;;;;5022658;28;20174;-82
2022/08/24 04:04:30;;;;;;;5.50;3.87;;;15.80;99.90;;;;;;5021079;28;20437;-82
2022/08/24 04:06:56;;;;;;;5.17;3.80;;;15.80;99.90;;;;;;5024212;28;20267;-83
2022/08/24 04:09:22;;;;;;;7.50;5.30;;;15.80;99.90;;;;;;5023734;28;20433;-82
2022/08/24 04:11:48;;;;;;;5.30;4.47;;;15.80;99.90;;;;;;5024366;28;20941;-83
2022/08/24 04:14:16;;;;;;;6.00;4.30;;;15.80;99.90;;;;;;5021312;28;20555;-84
2022/08/24 04:16:44;;;;;;;4.80;4.30;;;;;;;;;;5021372;28;20441;-82
2022/08/24 04:19:11;;;;;;;5.00;4.07;;;16.00;99.90;;;;;;5020029;28;20179;-82
2022/08/24 04:21:37;;;;;;;7.87;5.07;;;16.00;99.90;;;;;;5029314;28;20470;-82
2022/08/24 04:24:07;;;;;;;8.10;4.60;;;16.00;99.90;;;;;;5027245;28;20433;-82
2022/08/24 04:26:35;;;;;;;4.97;4.57;;;16.00;99.90;;;;;;5025172;28;20212;-83
2022/08/24 04:29:01;;;;;;;4.97;4.47;;;16.00;99.90;;;;;;5023352;28;20896;-82
2022/08/24 04:31:29;;;;;;;4.93;4.30;;;16.00;99.90;;;;;;5021023;28;20440;-82
2022/08/24 04:33:55;;;;;;;4.73;3.70;;;16.00;99.90;;;;;;5022492;28;20452;-83
2022/08/24 04:36:22;;;;;;;8.37;3.67;;;16.00;99.90;;;;;;5029835;28;21061;-82
2022/08/24 04:38:49;;;;;;;5.17;3.67;;;16.10;99.90;;;;;;5022968;28;20265;-83
2022/08/24 04:41:19;;;;;;;6.70;3.90;;;16.20;99.90;;;;;;5023172;28;20444;-83
2022/08/24 04:43:45;;;;;;;6.30;4.57;;;16.20;99.90;;;;;;5018032;28;20431;-83
2022/08/24 04:46:15;;;;;;;6.73;4.03;;;16.30;99.90;;;;;;5021909;28;20422;-83
2022/08/24 04:48:43;;;;;;;5.43;4.53;;;16.40;99.90;;;;;;5030250;28;20412;-82
2022/08/24 04:51:10;;;;;;;7.53;3.80;;;16.80;99.90;;;;;;5024551;28;20422;-83
2022/08/24 04:53:36;;;;;;;4.03;3.13;;;17.70;99.90;;;;;;5022707;28;20472;-83
2022/08/24 04:56:02;;;;;;;5.27;3.57;;;18.60;99.90;;;;;;5020295;28;20429;-83
2022/08/24 04:58:29;;;;;;;3.97;3.53;;;19.80;99.90;;;;;;5019564;28;20468;-83
2022/08/24 05:00:55;;;;;;;4.93;3.67;;;20.90;99.90;;;;;;5017552;28;20414;-84
2022/08/24 05:03:21;;;;;;;5.30;4.27;;;22.10;99.90;;;;;;5020548;28;20740;-84
2022/08/24 05:05:49;;;;;;;7.30;4.03;;;23.20;99.90;;;;;;5036792;28;20440;-84
2022/08/24 05:08:18;;;;;;;10.47;4.90;;;24.10;99.90;;;;;;5025576;28;20436;-84
2022/08/24 05:10:46;;;;;;;7.80;4.83;;;25.00;99.90;;;;;;5023358;28;20424;-84
2022/08/24 05:13:13;;;;;;;5.10;4.60;;;26.00;97.90;;;;;;5025516;28;20428;-84
2022/08/24 05:15:43;;;;;;;5.10;4.23;;;27.00;95.00;;;;;;5040801;28;20434;-84
2022/08/24 05:18:10;;;;;;;7.40;5.00;;;27.90;91.50;;;;;;5026370;28;20449;-82
2022/08/24 05:20:44;;;;;;;7.40;4.37;;;28.80;86.70;;;;;;5026314;28;20418;-82
2022/08/24 05:23:10;;;;;;;7.07;4.83;;;29.60;80.70;;;;;;5025978;28;20493;-82
2022/08/24 05:25:37;;;;;;;4.73;3.60;;;31.80;77.20;;;;;;5028104;28;20459;-83
2022/08/24 05:28:03;;;;;;;6.53;4.63;;;30.70;70.60;;;;;;5030863;28;20456;-81
2022/08/24 05:30:28;;;;;;;4.20;3.80;;;31.20;66.60;;;;;;5025913;28;20429;-83
2022/08/24 05:32:54;;;;;;;7.90;4.37;;;31.60;63.30;;;;;;5023110;28;20175;-83
2022/08/24 05:35:20;;;;;;;6.60;4.30;;;32.20;61.00;;;;;;5020590;28;20191;-83
2022/08/24 05:37:46;;;;;;;8.07;3.93;;;32.50;58.20;;;;;;5022066;28;20189;-84
2022/08/24 05:40:13;;;;;;;5.17;3.87;;;32.70;57.20;;;;;;5021974;28;20410;-83
2022/08/24 05:42:39;;;;;;;4.73;3.50;;;32.70;55.30;;;;;;5025652;28;20203;-84
2022/08/24 05:45:05;;;;;;;8.17;3.80;;;32.50;54.90;;;;;;5028140;28;20447;-83
2022/08/24 05:47:33;;;;;;;8.50;3.70;;;32.40;54.50;;;;;;5028532;28;20210;-84
2022/08/24 05:49:59;;;;;;;5.30;4.00;;;33.00;53.70;;;;;;5030020;28;20472;-83
2022/08/24 05:52:26;;;;;;;4.83;4.20;;;33.30;51.90;;;;;;5042192;28;20422;-83
2022/08/24 05:54:54;;;;;;;7.03;3.73;;;32.80;50.90;;;;;;5042463;28;20451;-83
2022/08/24 05:57:20;;;;;;;7.37;5.13;;;33.40;50.20;;;;;;5041244;28;20439;-84
2022/08/24 05:59:45;;;;;;;4.70;4.10;;;33.90;49.30;;;;;;5042383;28;20958;-83
2022/08/24 06:02:11;;;;;;;5.13;4.63;;;33.70;48.60;;;;;;5029869;28;20425;-83
2022/08/24 06:04:37;;;;;;;4.83;4.43;;;33.60;48.00;;;;;;5029676;28;20180;-83
2022/08/24 06:07:08;;;;;;;4.70;4.30;;;33.60;47.90;;;;;;5029540;28;20294;-83
2022/08/24 06:09:35;;;;;;;7.93;5.20;;;33.80;47.80;;;;;;5025247;28;20179;-83
2022/08/24 06:12:00;;;;;;;8.40;4.30;;;34.80;46.90;;;;;;5022315;28;20496;-85
2022/08/24 06:14:26;;;;;;;7.83;5.60;;;35.00;45.80;;;;;;5019449;28;20670;-84
2022/08/24 06:16:52;;;;;;;6.10;5.00;;;34.80;45.30;;;;;;5017057;28;20198;-84
2022/08/24 06:19:19;;;;;;;5.60;5.10;;;35.00;45.40;;;;;;5015558;28;20883;-84
2022/08/24 06:21:46;;;;;;;9.03;5.17;;;35.60;44.10;;;;;;5016771;28;20230;-85
2022/08/24 06:24:15;;;;;;;9.40;5.63;;;36.10;44.20;;;;;;5017200;28;20506;-85
2022/08/24 06:29:26;;;;;;;6.83;6.27;;;37.70;42.20;;;;;;5017388;28;20415;-84
2022/08/24 06:31:53;;;;;;;7.03;6.20;;;37.80;41.10;;;;;;5023963;28;20421;-83
2022/08/24 06:34:19;;;;;;;8.10;6.70;;;37.50;40.00;;;;;;5031123;28;20624;-85
2022/08/24 06:36:45;;;;;;;9.87;6.73;;;37.10;40.80;;;;;;5019688;28;20537;-85
2022/08/24 06:39:10;;;;;;;7.40;6.90;;;37.80;40.40;;;;;;5014795;28;20413;-84
2022/08/24 06:41:37;;;;;;;6.93;6.30;;;37.10;39.90;;;;;;5014221;28;20515;-84
2022/08/24 06:44:03;;;;;;;8.00;7.13;;;38.10;40.20;;;;;;5015583;28;20274;-85
2022/08/24 06:46:29;;;;;;;8.23;7.70;;;39.10;39.10;;;;;;5022012;28;20460;-85
2022/08/24 06:48:54;;;;;;;8.30;7.60;;;38.60;38.20;;;;;;5023616;28;20436;-85
2022/08/24 06:51:21;;;;;;;8.23;7.47;;;38.80;39.00;;;;;;5022983;28;20194;-84
2022/08/24 06:53:49;;;;;;;9.10;8.20;;;38.80;38.70;;;;;;5024298;28;21029;-84
2022/08/24 06:56:15;;;;;;;8.20;7.40;;;38.40;38.20;;;;;;5021188;28;20428;-85
2022/08/24 06:58:41;;;;;;;8.80;7.60;;;39.40;37.80;;;;;;5034628;28;20426;-84
2022/08/24 07:01:20;;;;;;;10.90;8.37;;;40.20;36.80;;;;;;5035536;28;20412;-84
2022/08/24 07:03:46;;;;;;;9.33;8.47;;;39.50;36.20;;;;;;5036118;28;20476;-84
2022/08/24 07:06:13;;;;;;;9.43;8.60;;;39.30;36.40;;;;;;5035551;28;20414;-85
2022/08/24 07:08:41;;;;;;;16.43;8.70;;;39.30;36.90;;;;;;5035585;28;20402;-85
2022/08/24 07:11:07;;;;;;;9.77;8.10;;;39.10;37.20;;;;;;5024095;28;20444;-85
2022/08/24 07:13:33;;;;;;;10.47;9.50;;;38.80;37.50;;;;;;5023499;28;20430;-85
2022/08/24 07:15:59;;;;;;;8.90;8.10;;;36.50;39.00;;;;;;5023640;28;20940;-85
2022/08/24 07:18:25;;;;;;;9.00;7.60;;;36.40;39.60;;;;;;5022000;28;20176;-84
2022/08/24 07:20:51;;;;;;;7.90;7.27;;;36.10;40.80;;;;;;5023437;28;20434;-85
2022/08/24 07:23:18;;;;;;;8.80;8.10;;;36.50;40.50;;;;;;5024166;28;20463;-85
2022/08/24 07:25:45;;;;;;;8.87;8.17;;;36.40;40.90;;;;;;5033980;28;20179;-85
2022/08/24 07:28:11;;;;;;;9.30;8.53;;;35.80;41.40;;;;;;5035212;28;20509;-84
2022/08/24 07:30:37;;;;;;;8.70;7.80;;;35.60;43.00;;;;;;5034612;28;20410;-83
2022/08/24 07:33:03;;;;;;;8.27;7.67;;;35.40;43.10;;;;;;5027532;28;20431;-85
2022/08/24 07:35:31;;;;;;;8.30;7.50;;;36.90;42.40;;;;;;5022583;28;20459;-84
2022/08/24 07:37:57;;;;;;;8.90;8.10;;;38.70;40.80;;;;;;5016584;28;20804;-85
2022/08/24 07:40:24;;;;;;;9.50;8.60;;;40.20;39.40;;;;;;5015484;28;20394;-85
2022/08/24 07:42:52;;;;;;;11.00;10.10;;;41.50;37.60;;;;;;5012822;28;20846;-85
2022/08/24 07:45:18;;;;;;;10.57;9.50;;;41.40;36.20;;;;;;5014201;28;20468;-85
2022/08/24 07:47:44;;;;;;;12.07;10.90;;;40.90;36.60;;;;;;5016296;28;20546;-85
2022/08/24 07:50:11;;;;;;;11.37;10.67;;;40.80;36.30;;;;;;5023063;28;20881;-85
2022/08/24 07:52:36;;;;;;;11.50;10.40;;;40.10;36.40;;;;;;5015535;28;20417;-84
2022/08/24 07:55:02;;;;;;;10.87;10.03;;;39.50;37.20;;;;;;5022759;28;20456;-85
2022/08/24 07:57:28;;;;;;;10.07;9.57;;;39.90;37.60;;;;;;5025246;28;20281;-85
2022/08/24 07:59:54;;;;;;;10.97;10.07;;;39.80;37.10;;;;;;5035420;28;20423;-85
2022/08/24 08:02:19;;;;;;;10.20;9.30;;;39.30;37.40;;;;;;5035030;28;20392;-85
2022/08/24 08:04:45;;;;;;;9.57;8.97;;;39.00;37.60;;;;;;5035155;28;20223;-81
2022/08/24 08:07:13;;;;;;;8.90;8.10;;;38.70;37.80;;;;;;5025320;28;20699;-82
2022/08/24 08:09:39;;;;;;;10.03;9.23;;;38.30;37.80;;;;;;5022872;28;20196;-85
2022/08/24 08:12:05;;;;;;;10.00;9.20;;;37.80;38.20;;;;;;5020746;28;20478;-84
2022/08/24 08:14:31;;;;;;;9.73;9.03;;;38.10;38.00;;;;;;5014776;28;20183;-85
2022/08/24 08:16:57;;;;;;;10.93;10.10;;;38.30;36.40;;;;;;5014645;28;20424;-84
2022/08/24 08:19:23;;;;;;;10.37;9.77;;;38.20;36.80;;;;;;5014901;28;20421;-84
2022/08/24 08:24:38;;;;;;;9.47;8.60;;;37.40;37.40;;;;;;5021328;28;20222;-85
2022/08/24 08:27:04;;;;;;;9.70;9.10;;;37.60;38.20;;;;;;5015499;28;20429;-84
2022/08/24 08:29:33;;;;;;;10.50;9.60;;;37.70;37.00;;;;;;5013159;28;20411;-84
2022/08/24 08:31:59;;;;;;;9.50;8.90;;;37.50;37.00;;;;;;5017959;28;20648;-84
2022/08/24 08:34:25;;;;;;;10.73;10.00;;;37.40;37.10;;;;;;5019848;28;20456;-84
2022/08/24 08:36:51;;;;;;;9.77;9.00;;;37.50;37.60;;;;;;5022169;28;20463;-83
2022/08/24 08:39:20;;;;;;;9.90;9.10;;;37.80;36.60;;;;;;5023981;28;20918;-84
2022/08/24 08:42:09;;;;;;;9.37;8.67;;;38.10;37.10;;;;;;5020082;28;20175;-85
2022/08/24 08:45:06;;;;;;;9.03;8.33;;;38.60;36.50;;;;;;5020499;28;20398;-84
2022/08/24 08:48:09;;;;;;;9.20;8.60;;;38.30;35.60;;;;;;5025842;28;20519;-84
2022/08/24 08:51:02;;;;;;;8.80;8.40;;;38.50;35.80;;;;;;5034155;28;21221;-84
2022/08/24 08:53:41;;;;;;;10.57;9.93;;;38.10;35.20;;;;;;5041903;28;20452;-85
2022/08/24 08:56:34;;;;;;;34.00;11.20;;;39.10;33.60;;;;;;5031183;28;20448;-85
2022/08/24 08:59:06;;;;;;;10.30;9.80;;;39.40;34.00;;;;;;5028719;28;20422;-84
2022/08/24 09:02:09;;;;;;;11.83;10.83;;;40.30;33.10;;;;;;5026410;28;20769;-85
2022/08/24 09:04:53;;;;;;;10.30;9.70;;;40.60;31.60;;;;;;5029733;28;20415;-82
2022/08/24 09:07:58;;;;;;;11.57;10.70;;;40.40;32.20;;;;;;5036337;28;20435;-85
2022/08/24 09:10:48;;;;;;;12.40;11.30;;;39.50;32.30;;;;;;5038037;28;20826;-85
2022/08/24 09:13:47;;;;;;;9.67;9.23;;;39.40;33.40;;;;;;5038518;28;20530;-85
2022/08/24 09:16:15;;;;;;;10.67;10.17;;;39.80;32.10;;;;;;5036506;28;20979;-84
2022/08/24 09:19:22;;;;;;;11.07;10.27;;;39.90;32.60;;;;;;5033707;28;20420;-83
2022/08/24 09:22:09;;;;;;;13.00;12.17;;;41.30;31.80;;;;;;5012337;28;20520;-85
2022/08/24 09:24:52;;;;;;;12.57;11.77;;;41.90;30.50;;;;;;5018461;28;20409;-85
2022/08/24 09:27:38;;;;;;;12.70;11.80;;;41.70;30.20;;;;;;5024241;28;21011;-82
2022/08/24 09:30:14;;;;;;;13.50;12.60;;;40.60;30.60;;;;;;5026798;28;20409;-81
2022/08/24 09:33:11;;;;;;;13.40;12.30;;;39.60;31.10;;;;;;5020430;28;20412;-82
2022/08/24 09:36:05;;;;;;;12.77;12.17;;;38.70;32.80;;;;;;5017010;28;20532;-82
2022/08/24 09:38:57;;;;;;;13.40;12.80;;;39.40;32.70;;;;;;5017490;28;20815;-82
2022/08/24 09:41:30;;;;;;;15.87;14.90;;;40.00;32.50;;;;;;5019405;28;20451;-81
2022/08/24 09:44:12;;;;;;;14.90;14.20;;;40.80;31.80;;;;;;5027613;28;20423;-82
2022/08/24 09:47:21;;;;;;;9.90;9.30;;;38.30;32.10;;;;;;5033611;28;20442;-82
2022/08/24 09:50:01;;;;;;;11.73;10.80;;;37.70;34.00;;;;;;5037867;28;20488;-82
2022/08/24 09:52:45;;;;;;;25.83;24.43;;;37.80;34.80;;;;;;5037684;28;20395;-82
2022/08/24 09:55:41;;;;;;;9.20;8.50;;;37.10;35.60;;;;;;5036406;28;20432;-81
2022/08/24 09:58:16;;;;;;;10.57;9.70;;;37.40;35.80;;;;;;5025787;28;20437;-81
2022/08/24 10:01:00;;;;;;;9.33;8.43;;;36.70;35.30;;;;;;5029276;28;20413;-82
2022/08/24 10:03:44;;;;;;;8.10;7.60;;;36.00;36.70;;;;;;5038662;28;20452;-82
2022/08/24 10:06:20;;;;;;;9.37;8.37;;;36.60;35.80;;;;;;5037462;28;20412;-81
2022/08/24 10:08:48;;;;;;;13.20;8.47;;;36.60;36.50;;;;;;5039006;28;20399;-82
2022/08/24 10:11:34;;;;;;;8.93;8.40;;;36.50;36.80;;;;;;5039331;28;20406;-82
2022/08/24 10:14:18;;;;;;;9.33;8.20;;;36.10;36.70;;;;;;5038725;28;20442;-82
2022/08/24 10:17:08;;;;;;;9.47;7.83;;;36.20;37.00;;;;;;5038944;28;20428;-82
2022/08/24 10:20:02;;;;;;;8.13;7.60;;;36.10;37.40;;;;;;5037867;28;20392;-82
2022/08/24 10:22:58;;;;;;;7.93;7.43;;;35.50;37.40;;;;;;5038454;28;20477;-82
2022/08/24 10:25:33;;;;;;;7.30;6.80;;;34.70;37.60;;;;;;5037805;28;20469;-82
2022/08/24 10:28:23;;;;;;;6.63;6.13;;;33.00;39.20;;;;;;5037927;28;20434;-82
2022/08/24 10:31:01;;;;;;;6.03;5.63;;;31.90;40.30;;;;;;5038885;28;20401;-82
2022/08/24 10:33:50;;;;;;;5.20;4.80;;;31.60;42.00;;;;;;5037511;28;20389;-82
2022/08/24 10:36:43;;;;;;;8.73;8.33;;;31.30;38.70;;;;;;5035822;28;20470;-81
2022/08/24 10:39:42;;;;;;;9.60;9.00;;;30.90;39.80;;;;;;5038051;28;20390;-82
2022/08/24 10:43:32;;;;;;;6.57;4.80;;;30.80;41.10;;;;;;5036290;28;20408;-82
2022/08/24 10:45:26;;;;;;;4.63;4.30;;;30.50;41.30;;;;;;5037445;28;20411;-81
2022/08/24 10:48:10;;;;;;;6.20;4.00;;;30.70;43.60;;;;;;5037610;28;20413;-82
2022/08/24 10:50:50;;;;;;;4.80;4.40;;;30.60;42.10;;;;;;5038656;28;20922;-82
2022/08/24 10:53:28;;;;;;;4.40;4.10;;;30.60;41.60;;;;;;5037805;28;20538;-81
2022/08/24 10:56:12;;;;;;;4.87;4.47;;;30.70;42.40;;;;;;5032522;28;20420;-83
2022/08/24 10:58:55;;;;;;;4.80;4.40;;;30.80;40.70;;;;;;5026999;28;20416;-82
2022/08/24 11:01:26;;;;;;;5.43;4.67;;;30.80;40.20;;;;;;5030479;28;20966;-81
2022/08/24 11:03:54;;;;;;;7.50;4.20;;;30.50;39.30;;;;;;5037320;28;20415;-82
2022/08/24 11:06:21;;;;;;;6.40;4.80;;;30.40;40.00;;;;;;5035368;28;20440;-82
2022/08/24 11:08:52;;;;;;;4.10;3.80;;;30.20;39.60;;;;;;5035741;28;20399;-80
2022/08/24 11:11:40;;;;;;;4.63;4.33;;;30.00;39.60;;;;;;5034503;28;20420;-80
2022/08/24 11:14:11;;;;;;;4.77;4.37;;;30.10;41.90;;;;;;5036064;28;20490;-80
2022/08/24 11:16:40;;;;;;;4.60;4.20;;;30.10;43.10;;;;;;5035594;28;20413;-80
2022/08/24 11:19:26;;;;;;;4.07;3.77;;;30.40;42.80;;;;;;5036556;28;20443;-80
2022/08/24 11:22:01;;;;;;;5.70;5.17;;;30.50;42.30;;;;;;5032204;28;20421;-80
2022/08/24 11:24:38;;;;;;;5.17;4.67;;;30.20;42.80;;;;;;5036462;28;20466;-80
2022/08/24 11:27:23;;;;;;;5.70;4.10;;;30.30;43.20;;;;;;5035916;28;20435;-80
2022/08/24 11:29:49;;;;;;;4.90;4.40;;;30.50;43.80;;;;;;5035942;28;20488;-80
2022/08/24 11:32:28;;;;;;;5.50;4.83;;;30.40;44.10;;;;;;5036029;28;20409;-80
2022/08/24 11:34:54;;;;;;;6.50;4.27;;;30.50;44.40;;;;;;5035334;28;20983;-80
2022/08/24 11:37:31;;;;;;;9.30;4.97;;;30.50;44.80;;;;;;5036883;28;20423;-79
2022/08/24 11:39:57;;;;;;;5.13;4.20;;;30.60;45.10;;;;;;5036692;28;20527;-81
2022/08/24 11:42:49;;;;;;;4.50;4.10;;;30.80;44.60;;;;;;5036667;28;20432;-83
2022/08/24 11:45:41;;;;;;;10.30;4.73;;;31.10;45.40;;;;;;5036839;28;20171;-82
2022/08/24 11:48:13;;;;;;;7.97;4.80;;;31.10;45.30;;;;;;5036346;28;20443;-83
2022/08/24 11:50:47;;;;;;;10.03;5.03;;;31.10;45.60;;;;;;5040765;28;20399;-84
2022/08/24 11:53:28;;;;;;;5.30;4.80;;;31.00;45.00;;;;;;5038181;28;21044;-81
2022/08/24 11:56:05;;;;;;;9.07;4.37;;;31.10;46.00;;;;;;5026722;28;20412;-83
2022/08/24 11:58:41;;;;;;;5.03;4.10;;;31.10;45.20;;;;;;5022142;28;20543;-83
2022/08/24 12:01:16;;;;;;;7.27;4.30;;;30.90;44.40;;;;;;5023095;28;20397;-82
2022/08/24 12:04:09;;;;;;;4.47;4.03;;;31.20;44.40;;;;;;5026643;28;20408;-84
2022/08/24 12:06:53;;;;;;;5.73;4.30;;;31.40;44.30;;;;;;5018225;28;20917;-84
2022/08/24 12:09:44;;;;;;;4.93;4.53;;;31.40;44.90;;;;;;5029366;28;20405;-85
2022/08/24 12:12:39;;;;;;;5.77;4.20;;;31.20;44.40;;;;;;5033137;28;20428;-81
2022/08/24 12:15:13;;;;;;;7.73;4.87;;;31.30;44.90;;;;;;5027379;28;20457;-84
2022/08/24 12:18:01;;;;;;;4.70;4.40;;;31.50;43.90;;;;;;5026457;28;20458;-84
2022/08/24 12:20:39;;;;;;;4.97;4.57;;;31.80;43.60;;;;;;5027145;28;20456;-84
2022/08/24 12:23:21;;;;;;;6.57;5.03;;;32.20;43.00;;;;;;5025625;28;20413;-84
2022/08/24 12:26:03;;;;;;;5.90;5.40;;;32.10;42.50;;;;;;5024609;28;20456;-84
2022/08/24 12:28:44;;;;;;;7.40;4.70;;;31.70;42.70;;;;;;5026469;28;20475;-84
2022/08/24 12:31:18;;;;;;;6.87;5.30;;;31.80;42.90;;;;;;5025548;28;20415;-84
2022/08/24 12:33:49;;;;;;;4.90;4.60;;;32.10;42.40;;;;;;5026500;28;20430;-83
2022/08/24 12:36:24;;;;;;;9.40;5.13;;;32.40;42.10;;;;;;5017319;28;20422;-84
2022/08/24 12:39:05;;;;;;;6.30;5.00;;;32.80;41.60;;;;;;5020138;28;20806;-84
2022/08/24 12:41:37;;;;;;;4.90;4.40;;;32.70;42.10;;;;;;5021417;28;20441;-83
2022/08/24 12:44:14;;;;;;;4.97;4.57;;;32.60;42.00;;;;;;5023604;28;20425;-83
2022/08/24 12:46:43;;;;;;;10.80;5.10;;;32.70;41.50;;;;;;5037739;28;20447;-84
2022/08/24 12:49:45;;;;;;;8.20;4.50;;;32.50;41.40;;;;;;5025331;28;20427;-83
2022/08/24 12:52:25;;;;;;;4.63;4.27;;;32.60;41.80;;;;;;5019616;28;20475;-83
2022/08/24 12:55:18;;;;;;;5.60;5.20;;;32.50;41.50;;;;;;5024786;28;20461;-84
2022/08/24 12:57:56;;;;;;;5.30;5.00;;;32.50;41.10;;;;;;5009737;28;20746;-83
2022/08/24 13:00:32;;;;;;;7.30;4.67;;;32.40;41.30;;;;;;5043019;28;20540;-83
2022/08/24 13:03:01;;;;;;;10.13;5.27;;;32.00;41.10;;;;;;5026769;28;20480;-83
2022/08/24 13:05:40;;;;;;;4.70;4.40;;;32.00;41.80;;;;;;5025961;28;20441;-82
2022/08/24 13:08:38;;;;;;;7.73;5.07;;;32.10;41.60;;;;;;5022900;28;20463;-83
2022/08/24 13:11:11;;;;;;;5.80;5.20;;;32.70;41.90;;;;;;5022296;28;20869;-84
2022/08/24 13:13:56;;;;;;;10.40;5.67;;;32.70;40.40;;;;;;5022719;28;20441;-83
2022/08/24 13:17:05;;;;;;;5.07;4.67;;;32.40;40.40;;;;;;5029358;28;20801;-83
2022/08/24 13:19:35;;;;;;;4.67;4.30;;;32.50;40.40;;;;;;5038482;28;20409;-83